Aviation Digital Data Service (ADDS)

Output produced by METARs form (1606 UTC 12 February 2016)
found at http://www.aviationweather.gov/adds/metars/
 
KPHL 121510Z 1215/1318 23007KT P6SM BKN150 
     FM122100 22011KT P6SM OVC080 
     FM130300 22006KT 5SM -SHSN BKN030 
     FM130800 28013G25KT P6SM OVC040 
     FM131200 30020G33KT P6SM VCSH BKN050 
     FM131700 30022G39KT P6SM SCT050